Flores, Guatemala
Current Conditions -  °F | °C
As of 2:00 PM on Thursday 23 Oct 2014 (Local Time) from MGMM Reporting Station
Broken Clouds Broken Clouds  
Wind Chill: 82°   Ceiling: 1800
Heat Index: 88°   Visibility: 6mi
Dew Point: 73°   Wind: 12mph
Humidity: 74%   Direction: 300°WNW
Pressure: 29.8"   Gusts: NA
Location:  16.93°N, 89.89°W
Report Text: MGMM 232000Z 300010KT 9999 BKN018 SCT090 28/23 Q1009 A2980
Loading
Personal Weather Stations






























Interactive Weather Map
Tropical Storm Tracking
New forecast layout! Learn more

10-Day Weather Forecast

Advertisements
Track Severe Weather on mobile